Eagle Rock, Idaho
Current Conditions -  °F | °C
As of 6:53 AM on Thursday 23 Oct 2014 (Local Time) from KIDA Reporting Station
Clear Clear  
Wind Chill: 39°   Ceiling: Unl
Heat Index: 42°   Visibility: 10mi
Dew Point: 32°   Wind: 5mph
Humidity: 67%   Direction: 330°NNW
Pressure: 30.1"   Gusts: NA
Location:  43.5246°N, 112.143°W
Report Text: KIDA 231253Z 33004KT 10SM CLR 06/00 A3010 RMK AO2 SLP188 T00560000
Loading
Personal Weather Stations






























Interactive Weather Map
Tropical Storm Tracking
New forecast layout! Learn more

10-Day Weather Forecast

Advertisements
Track Severe Weather on mobile